sensor_id;sensor_type;location;lat;lon;timestamp;P1;durP1;ratioP1;P2;durP2;ratioP2
69401;SDS011;56589;51.992;5.924;2022-11-14T00:02:23;26.67;;;16.42;;
69401;SDS011;56589;51.992;5.924;2022-11-14T00:04:51;29.13;;;17.65;;
69401;SDS011;56589;51.992;5.924;2022-11-14T00:07:17;33.85;;;16.75;;
69401;SDS011;56589;51.992;5.924;2022-11-14T00:09:42;28.52;;;16.38;;
69401;SDS011;56589;51.992;5.924;2022-11-14T00:12:08;33.25;;;18.55;;
69401;SDS011;56589;51.992;5.924;2022-11-14T00:14:35;28.25;;;16.73;;
69401;SDS011;56589;51.992;5.924;2022-11-14T00:17:02;31.67;;;16.17;;
69401;SDS011;56589;51.992;5.924;2022-11-14T00:19:29;29.17;;;17.88;;
69401;SDS011;56589;51.992;5.924;2022-11-14T00:21:57;29.67;;;17.52;;
69401;SDS011;56589;51.992;5.924;2022-11-14T00:24:23;30.27;;;17.27;;
69401;SDS011;56589;51.992;5.924;2022-11-14T00:26:49;30.67;;;17.35;;
69401;SDS011;56589;51.992;5.924;2022-11-14T00:29:14;33.80;;;19.45;;
69401;SDS011;56589;51.992;5.924;2022-11-14T00:31:40;31.98;;;17.60;;
69401;SDS011;56589;51.992;5.924;2022-11-14T00:34:06;29.85;;;18.80;;
69401;SDS011;56589;51.992;5.924;2022-11-14T00:36:33;33.05;;;19.42;;
69401;SDS011;56589;51.992;5.924;2022-11-14T00:39:01;30.67;;;17.73;;
69401;SDS011;56589;51.992;5.924;2022-11-14T00:41:28;31.13;;;18.23;;
69401;SDS011;56589;51.992;5.924;2022-11-14T00:43:53;33.00;;;19.83;;
69401;SDS011;56589;51.992;5.924;2022-11-14T00:46:19;30.63;;;18.48;;
69401;SDS011;56589;51.992;5.924;2022-11-14T00:48:45;32.63;;;19.70;;
69401;SDS011;56589;51.992;5.924;2022-11-14T00:51:11;32.53;;;19.17;;
69401;SDS011;56589;51.992;5.924;2022-11-14T00:53:37;33.70;;;18.42;;
69401;SDS011;56589;51.992;5.924;2022-11-14T00:56:05;34.22;;;18.83;;
69401;SDS011;56589;51.992;5.924;2022-11-14T00:58:32;36.25;;;19.48;;
69401;SDS011;56589;51.992;5.924;2022-11-14T01:00:57;36.97;;;20.48;;
69401;SDS011;56589;51.992;5.924;2022-11-14T01:03:23;36.08;;;19.27;;
69401;SDS011;56589;51.992;5.924;2022-11-14T01:05:50;34.83;;;18.88;;
69401;SDS011;56589;51.992;5.924;2022-11-14T01:08:16;33.15;;;19.58;;
69401;SDS011;56589;51.992;5.924;2022-11-14T01:10:44;33.80;;;19.85;;
69401;SDS011;56589;51.992;5.924;2022-11-14T01:13:15;36.22;;;20.45;;
69401;SDS011;56589;51.992;5.924;2022-11-14T01:15:43;35.72;;;19.95;;
69401;SDS011;56589;51.992;5.924;2022-11-14T01:18:12;36.05;;;18.92;;
69401;SDS011;56589;51.992;5.924;2022-11-14T01:20:43;36.63;;;20.48;;
69401;SDS011;56589;51.992;5.924;2022-11-14T01:23:11;36.42;;;20.98;;
69401;SDS011;56589;51.992;5.924;2022-11-14T01:25:39;37.22;;;19.85;;
69401;SDS011;56589;51.992;5.924;2022-11-14T01:28:07;36.33;;;20.85;;
69401;SDS011;56589;51.992;5.924;2022-11-14T01:30:38;37.28;;;21.42;;
69401;SDS011;56589;51.992;5.924;2022-11-14T01:33:05;40.38;;;21.17;;
69401;SDS011;56589;51.992;5.924;2022-11-14T01:35:32;40.38;;;20.70;;
69401;SDS011;56589;51.992;5.924;2022-11-14T01:38:01;38.75;;;20.50;;
69401;SDS011;56589;51.992;5.924;2022-11-14T01:40:27;37.28;;;19.92;;
69401;SDS011;56589;51.992;5.924;2022-11-14T01:45:58;37.38;;;21.05;;
69401;SDS011;56589;51.992;5.924;2022-11-14T01:48:30;36.58;;;19.73;;
69401;SDS011;56589;51.992;5.924;2022-11-14T01:51:06;33.40;;;18.80;;
69401;SDS011;56589;51.992;5.924;2022-11-14T01:56:18;42.22;;;20.85;;
69401;SDS011;56589;51.992;5.924;2022-11-14T01:58:55;34.42;;;19.60;;
69401;SDS011;56589;51.992;5.924;2022-11-14T02:01:30;37.60;;;19.90;;
69401;SDS011;56589;51.992;5.924;2022-11-14T02:04:01;42.15;;;21.27;;
69401;SDS011;56589;51.992;5.924;2022-11-14T02:06:31;37.92;;;20.95;;
69401;SDS011;56589;51.992;5.924;2022-11-14T02:08:58;36.83;;;20.45;;
69401;SDS011;56589;51.992;5.924;2022-11-14T02:11:28;41.53;;;21.30;;
69401;SDS011;56589;51.992;5.924;2022-11-14T02:13:58;40.25;;;20.75;;
69401;SDS011;56589;51.992;5.924;2022-11-14T02:16:25;41.17;;;21.92;;
69401;SDS011;56589;51.992;5.924;2022-11-14T02:18:55;37.45;;;19.98;;
69401;SDS011;56589;51.992;5.924;2022-11-14T02:21:23;40.70;;;21.08;;
69401;SDS011;56589;51.992;5.924;2022-11-14T02:23:49;37.75;;;20.10;;
69401;SDS011;56589;51.992;5.924;2022-11-14T02:26:15;42.33;;;21.17;;
69401;SDS011;56589;51.992;5.924;2022-11-14T02:28:42;39.83;;;20.52;;
69401;SDS011;56589;51.992;5.924;2022-11-14T02:31:08;39.72;;;21.25;;
69401;SDS011;56589;51.992;5.924;2022-11-14T02:33:34;41.90;;;21.60;;
69401;SDS011;56589;51.992;5.924;2022-11-14T02:36:00;41.60;;;20.00;;
69401;SDS011;56589;51.992;5.924;2022-11-14T02:38:28;41.03;;;20.55;;
69401;SDS011;56589;51.992;5.924;2022-11-14T02:40:54;42.85;;;20.63;;
69401;SDS011;56589;51.992;5.924;2022-11-14T02:43:19;46.47;;;21.88;;
69401;SDS011;56589;51.992;5.924;2022-11-14T02:45:45;40.40;;;20.92;;
69401;SDS011;56589;51.992;5.924;2022-11-14T02:48:11;40.53;;;22.13;;
69401;SDS011;56589;51.992;5.924;2022-11-14T02:50:37;40.03;;;21.25;;
69401;SDS011;56589;51.992;5.924;2022-11-14T02:53:03;43.42;;;21.05;;
69401;SDS011;56589;51.992;5.924;2022-11-14T02:55:31;41.40;;;20.35;;
69401;SDS011;56589;51.992;5.924;2022-11-14T02:57:57;43.80;;;22.52;;
69401;SDS011;56589;51.992;5.924;2022-11-14T03:00:23;41.92;;;21.50;;
69401;SDS011;56589;51.992;5.924;2022-11-14T03:02:48;46.40;;;22.45;;
69401;SDS011;56589;51.992;5.924;2022-11-14T03:05:18;40.97;;;21.02;;
69401;SDS011;56589;51.992;5.924;2022-11-14T03:07:45;38.22;;;20.83;;
69401;SDS011;56589;51.992;5.924;2022-11-14T03:10:11;44.72;;;22.55;;
69401;SDS011;56589;51.992;5.924;2022-11-14T03:12:39;38.08;;;19.88;;
69401;SDS011;56589;51.992;5.924;2022-11-14T03:15:05;39.28;;;21.10;;
69401;SDS011;56589;51.992;5.924;2022-11-14T03:17:33;40.58;;;21.15;;
69401;SDS011;56589;51.992;5.924;2022-11-14T03:19:59;43.63;;;20.35;;
69401;SDS011;56589;51.992;5.924;2022-11-14T03:22:26;39.03;;;19.88;;
69401;SDS011;56589;51.992;5.924;2022-11-14T03:24:52;39.15;;;20.13;;
69401;SDS011;56589;51.992;5.924;2022-11-14T03:27:18;41.35;;;19.25;;
69401;SDS011;56589;51.992;5.924;2022-11-14T03:29:47;39.67;;;20.35;;
69401;SDS011;56589;51.992;5.924;2022-11-14T03:32:13;41.03;;;21.58;;
69401;SDS011;56589;51.992;5.924;2022-11-14T03:34:39;38.88;;;20.67;;
69401;SDS011;56589;51.992;5.924;2022-11-14T03:37:05;43.10;;;20.77;;
69401;SDS011;56589;51.992;5.924;2022-11-14T03:39:30;41.65;;;20.70;;
69401;SDS011;56589;51.992;5.924;2022-11-14T03:41:56;41.50;;;20.98;;
69401;SDS011;56589;51.992;5.924;2022-11-14T03:44:22;41.10;;;19.10;;
69401;SDS011;56589;51.992;5.924;2022-11-14T03:46:50;42.00;;;21.55;;
69401;SDS011;56589;51.992;5.924;2022-11-14T03:49:16;40.08;;;19.77;;
69401;SDS011;56589;51.992;5.924;2022-11-14T03:51:42;39.95;;;20.13;;
69401;SDS011;56589;51.992;5.924;2022-11-14T03:54:08;37.05;;;19.17;;
69401;SDS011;56589;51.992;5.924;2022-11-14T03:56:34;44.47;;;21.83;;
69401;SDS011;56589;51.992;5.924;2022-11-14T03:59:00;40.25;;;19.65;;
69401;SDS011;56589;51.992;5.924;2022-11-14T04:01:26;40.33;;;20.17;;
69401;SDS011;56589;51.992;5.924;2022-11-14T04:03:55;36.88;;;19.63;;
69401;SDS011;56589;51.992;5.924;2022-11-14T04:06:20;38.42;;;20.08;;
69401;SDS011;56589;51.992;5.924;2022-11-14T04:08:46;37.67;;;19.70;;
69401;SDS011;56589;51.992;5.924;2022-11-14T04:11:12;38.80;;;20.60;;
69401;SDS011;56589;51.992;5.924;2022-11-14T04:13:38;37.30;;;20.08;;
69401;SDS011;56589;51.992;5.924;2022-11-14T04:16:04;39.42;;;20.40;;
69401;SDS011;56589;51.992;5.924;2022-11-14T04:18:30;43.38;;;20.83;;
69401;SDS011;56589;51.992;5.924;2022-11-14T04:20:58;38.40;;;19.70;;
69401;SDS011;56589;51.992;5.924;2022-11-14T04:23:24;38.85;;;19.92;;
69401;SDS011;56589;51.992;5.924;2022-11-14T04:25:50;38.33;;;20.13;;
69401;SDS011;56589;51.992;5.924;2022-11-14T04:28:15;38.78;;;19.88;;
69401;SDS011;56589;51.992;5.924;2022-11-14T04:30:41;38.67;;;20.15;;
69401;SDS011;56589;51.992;5.924;2022-11-14T04:33:07;42.15;;;20.73;;
69401;SDS011;56589;51.992;5.924;2022-11-14T04:35:33;42.15;;;20.10;;
69401;SDS011;56589;51.992;5.924;2022-11-14T04:38:01;39.33;;;20.77;;
69401;SDS011;56589;51.992;5.924;2022-11-14T04:40:27;42.13;;;20.85;;
69401;SDS011;56589;51.992;5.924;2022-11-14T04:42:53;43.05;;;20.08;;
69401;SDS011;56589;51.992;5.924;2022-11-14T04:45:19;41.20;;;20.50;;
69401;SDS011;56589;51.992;5.924;2022-11-14T04:47:45;38.42;;;19.48;;
69401;SDS011;56589;51.992;5.924;2022-11-14T04:50:11;41.05;;;19.85;;
69401;SDS011;56589;51.992;5.924;2022-11-14T04:52:36;43.38;;;21.17;;
69401;SDS011;56589;51.992;5.924;2022-11-14T04:55:05;37.90;;;19.17;;
69401;SDS011;56589;51.992;5.924;2022-11-14T04:57:32;41.92;;;20.30;;
69401;SDS011;56589;51.992;5.924;2022-11-14T04:59:57;38.50;;;19.25;;
69401;SDS011;56589;51.992;5.924;2022-11-14T05:02:23;41.42;;;19.95;;
69401;SDS011;56589;51.992;5.924;2022-11-14T05:04:49;39.28;;;18.23;;
69401;SDS011;56589;51.992;5.924;2022-11-14T05:07:15;39.08;;;19.83;;
69401;SDS011;56589;51.992;5.924;2022-11-14T05:09:41;38.60;;;19.33;;
69401;SDS011;56589;51.992;5.924;2022-11-14T05:12:09;37.03;;;19.27;;
69401;SDS011;56589;51.992;5.924;2022-11-14T05:14:35;40.83;;;18.58;;
69401;SDS011;56589;51.992;5.924;2022-11-14T05:17:00;35.08;;;17.75;;
69401;SDS011;56589;51.992;5.924;2022-11-14T05:19:26;40.22;;;20.08;;
69401;SDS011;56589;51.992;5.924;2022-11-14T05:21:52;41.22;;;19.05;;
69401;SDS011;56589;51.992;5.924;2022-11-14T05:24:18;40.78;;;20.08;;
69401;SDS011;56589;51.992;5.924;2022-11-14T05:26:43;42.30;;;20.98;;
69401;SDS011;56589;51.992;5.924;2022-11-14T05:29:12;37.75;;;19.52;;
69401;SDS011;56589;51.992;5.924;2022-11-14T05:31:37;41.60;;;20.63;;
69401;SDS011;56589;51.992;5.924;2022-11-14T05:34:03;37.08;;;19.95;;
69401;SDS011;56589;51.992;5.924;2022-11-14T05:36:29;40.78;;;19.75;;
69401;SDS011;56589;51.992;5.924;2022-11-14T05:38:55;43.33;;;20.40;;
69401;SDS011;56589;51.992;5.924;2022-11-14T05:41:21;38.38;;;19.73;;
69401;SDS011;56589;51.992;5.924;2022-11-14T05:43:47;38.38;;;18.35;;
69401;SDS011;56589;51.992;5.924;2022-11-14T05:46:15;40.03;;;20.02;;
69401;SDS011;56589;51.992;5.924;2022-11-14T05:48:41;40.50;;;20.38;;
69401;SDS011;56589;51.992;5.924;2022-11-14T05:51:08;39.67;;;19.50;;
69401;SDS011;56589;51.992;5.924;2022-11-14T05:53:36;40.45;;;19.15;;
69401;SDS011;56589;51.992;5.924;2022-11-14T05:56:03;39.35;;;18.85;;
69401;SDS011;56589;51.992;5.924;2022-11-14T05:58:32;37.72;;;18.40;;
69401;SDS011;56589;51.992;5.924;2022-11-14T06:01:02;37.30;;;18.90;;
69401;SDS011;56589;51.992;5.924;2022-11-14T06:03:34;38.70;;;17.92;;
69401;SDS011;56589;51.992;5.924;2022-11-14T06:06:03;41.47;;;18.88;;
69401;SDS011;56589;51.992;5.924;2022-11-14T06:08:31;39.92;;;18.77;;
69401;SDS011;56589;51.992;5.924;2022-11-14T06:11:00;39.58;;;19.00;;
69401;SDS011;56589;51.992;5.924;2022-11-14T06:13:27;37.25;;;18.15;;
69401;SDS011;56589;51.992;5.924;2022-11-14T06:15:56;35.63;;;18.90;;
69401;SDS011;56589;51.992;5.924;2022-11-14T06:18:24;37.95;;;17.65;;
69401;SDS011;56589;51.992;5.924;2022-11-14T06:20:52;37.67;;;19.00;;
69401;SDS011;56589;51.992;5.924;2022-11-14T06:23:18;36.92;;;18.38;;
69401;SDS011;56589;51.992;5.924;2022-11-14T06:25:44;37.60;;;18.67;;
69401;SDS011;56589;51.992;5.924;2022-11-14T06:28:10;35.72;;;18.25;;
69401;SDS011;56589;51.992;5.924;2022-11-14T06:30:35;36.00;;;18.42;;
69401;SDS011;56589;51.992;5.924;2022-11-14T06:33:01;35.53;;;17.55;;
69401;SDS011;56589;51.992;5.924;2022-11-14T06:35:27;36.25;;;18.02;;
69401;SDS011;56589;51.992;5.924;2022-11-14T06:37:55;37.35;;;19.05;;
69401;SDS011;56589;51.992;5.924;2022-11-14T06:40:23;34.20;;;18.58;;
69401;SDS011;56589;51.992;5.924;2022-11-14T06:42:49;34.63;;;16.63;;
69401;SDS011;56589;51.992;5.924;2022-11-14T06:45:15;33.92;;;18.45;;
69401;SDS011;56589;51.992;5.924;2022-11-14T06:47:41;34.42;;;16.98;;
69401;SDS011;56589;51.992;5.924;2022-11-14T06:50:07;35.58;;;17.10;;
69401;SDS011;56589;51.992;5.924;2022-11-14T06:52:33;35.80;;;17.52;;
69401;SDS011;56589;51.992;5.924;2022-11-14T06:55:02;36.50;;;18.50;;
69401;SDS011;56589;51.992;5.924;2022-11-14T06:57:28;38.25;;;19.70;;
69401;SDS011;56589;51.992;5.924;2022-11-14T06:59:53;32.28;;;17.13;;
69401;SDS011;56589;51.992;5.924;2022-11-14T07:02:19;37.03;;;17.90;;
69401;SDS011;56589;51.992;5.924;2022-11-14T07:04:45;32.55;;;16.27;;
69401;SDS011;56589;51.992;5.924;2022-11-14T07:07:11;39.47;;;18.85;;
69401;SDS011;56589;51.992;5.924;2022-11-14T07:09:38;38.53;;;18.27;;
69401;SDS011;56589;51.992;5.924;2022-11-14T07:12:07;35.53;;;17.95;;
69401;SDS011;56589;51.992;5.924;2022-11-14T07:14:34;33.67;;;17.25;;
69401;SDS011;56589;51.992;5.924;2022-11-14T07:16:59;36.58;;;18.08;;
69401;SDS011;56589;51.992;5.924;2022-11-14T07:19:25;35.00;;;17.80;;
69401;SDS011;56589;51.992;5.924;2022-11-14T07:21:51;37.70;;;17.45;;
69401;SDS011;56589;51.992;5.924;2022-11-14T07:24:17;34.00;;;17.58;;
69401;SDS011;56589;51.992;5.924;2022-11-14T07:26:42;34.63;;;16.83;;
69401;SDS011;56589;51.992;5.924;2022-11-14T07:29:12;32.70;;;16.27;;
69401;SDS011;56589;51.992;5.924;2022-11-14T07:31:39;34.83;;;17.60;;
69401;SDS011;56589;51.992;5.924;2022-11-14T07:34:05;29.27;;;14.75;;
69401;SDS011;56589;51.992;5.924;2022-11-14T07:36:31;33.20;;;16.20;;
69401;SDS011;56589;51.992;5.924;2022-11-14T07:38:57;35.38;;;17.08;;
69401;SDS011;56589;51.992;5.924;2022-11-14T07:41:23;34.15;;;17.40;;
69401;SDS011;56589;51.992;5.924;2022-11-14T07:43:49;32.53;;;16.45;;
69401;SDS011;56589;51.992;5.924;2022-11-14T07:46:17;31.58;;;16.13;;
69401;SDS011;56589;51.992;5.924;2022-11-14T07:48:43;30.02;;;14.98;;
69401;SDS011;56589;51.992;5.924;2022-11-14T07:51:13;31.13;;;16.85;;
69401;SDS011;56589;51.992;5.924;2022-11-14T07:53:41;32.47;;;15.45;;
69401;SDS011;56589;51.992;5.924;2022-11-14T07:56:07;28.58;;;16.70;;
69401;SDS011;56589;51.992;5.924;2022-11-14T07:58:34;32.20;;;16.67;;
69401;SDS011;56589;51.992;5.924;2022-11-14T08:01:01;32.30;;;16.70;;
69401;SDS011;56589;51.992;5.924;2022-11-14T08:03:32;33.63;;;16.45;;
69401;SDS011;56589;51.992;5.924;2022-11-14T08:05:59;29.67;;;15.57;;
69401;SDS011;56589;51.992;5.924;2022-11-14T08:08:25;31.08;;;16.55;;
69401;SDS011;56589;51.992;5.924;2022-11-14T08:10:54;30.58;;;16.40;;
69401;SDS011;56589;51.992;5.924;2022-11-14T08:13:21;29.95;;;16.33;;
69401;SDS011;56589;51.992;5.924;2022-11-14T08:15:47;29.27;;;16.17;;
69401;SDS011;56589;51.992;5.924;2022-11-14T08:18:13;31.10;;;16.40;;
69401;SDS011;56589;51.992;5.924;2022-11-14T08:20:41;31.85;;;16.77;;
69401;SDS011;56589;51.992;5.924;2022-11-14T08:23:08;30.40;;;15.85;;
69401;SDS011;56589;51.992;5.924;2022-11-14T08:25:34;29.35;;;15.30;;
69401;SDS011;56589;51.992;5.924;2022-11-14T08:28:00;31.25;;;15.63;;
69401;SDS011;56589;51.992;5.924;2022-11-14T08:30:26;32.03;;;16.45;;
69401;SDS011;56589;51.992;5.924;2022-11-14T08:32:52;30.77;;;16.25;;
69401;SDS011;56589;51.992;5.924;2022-11-14T08:35:18;29.52;;;15.70;;
69401;SDS011;56589;51.992;5.924;2022-11-14T08:37:47;32.90;;;15.40;;
69401;SDS011;56589;51.992;5.924;2022-11-14T08:40:13;28.58;;;15.07;;
69401;SDS011;56589;51.992;5.924;2022-11-14T08:42:39;29.02;;;15.68;;
69401;SDS011;56589;51.992;5.924;2022-11-14T08:45:05;31.33;;;16.95;;
69401;SDS011;56589;51.992;5.924;2022-11-14T08:47:32;32.17;;;16.17;;
69401;SDS011;56589;51.992;5.924;2022-11-14T08:49:58;26.20;;;15.25;;
69401;SDS011;56589;51.992;5.924;2022-11-14T08:52:23;31.67;;;15.32;;
69401;SDS011;56589;51.992;5.924;2022-11-14T08:54:52;28.77;;;15.13;;
69401;SDS011;56589;51.992;5.924;2022-11-14T08:57:17;27.05;;;15.48;;
69401;SDS011;56589;51.992;5.924;2022-11-14T08:59:43;31.77;;;14.60;;
69401;SDS011;56589;51.992;5.924;2022-11-14T09:02:09;30.10;;;16.40;;
69401;SDS011;56589;51.992;5.924;2022-11-14T09:04:35;30.23;;;15.57;;
69401;SDS011;56589;51.992;5.924;2022-11-14T09:07:01;27.98;;;15.82;;
69401;SDS011;56589;51.992;5.924;2022-11-14T09:09:26;26.52;;;15.15;;
69401;SDS011;56589;51.992;5.924;2022-11-14T09:11:55;27.42;;;15.13;;
69401;SDS011;56589;51.992;5.924;2022-11-14T09:14:20;30.67;;;15.90;;
69401;SDS011;56589;51.992;5.924;2022-11-14T09:16:46;26.75;;;15.93;;
69401;SDS011;56589;51.992;5.924;2022-11-14T09:19:12;29.70;;;15.48;;
69401;SDS011;56589;51.992;5.924;2022-11-14T09:21:38;30.20;;;16.13;;
69401;SDS011;56589;51.992;5.924;2022-11-14T09:24:04;25.50;;;14.60;;
69401;SDS011;56589;51.992;5.924;2022-11-14T09:26:31;27.70;;;15.88;;
69401;SDS011;56589;51.992;5.924;2022-11-14T09:28:59;24.77;;;14.80;;
69401;SDS011;56589;51.992;5.924;2022-11-14T09:31:25;26.13;;;14.75;;
69401;SDS011;56589;51.992;5.924;2022-11-14T09:33:51;28.73;;;14.93;;
69401;SDS011;56589;51.992;5.924;2022-11-14T09:36:16;23.33;;;13.63;;
69401;SDS011;56589;51.992;5.924;2022-11-14T09:38:42;25.10;;;14.48;;
69401;SDS011;56589;51.992;5.924;2022-11-14T09:41:12;23.95;;;13.60;;
69401;SDS011;56589;51.992;5.924;2022-11-14T09:44:10;25.88;;;13.43;;
69401;SDS011;56589;51.992;5.924;2022-11-14T09:46:54;23.63;;;13.77;;
69401;SDS011;56589;51.992;5.924;2022-11-14T09:49:26;23.10;;;14.07;;
69401;SDS011;56589;51.992;5.924;2022-11-14T09:52:02;24.85;;;13.98;;
69401;SDS011;56589;51.992;5.924;2022-11-14T09:54:43;24.83;;;14.18;;
69401;SDS011;56589;51.992;5.924;2022-11-14T09:57:17;21.23;;;12.07;;
69401;SDS011;56589;51.992;5.924;2022-11-14T09:59:47;23.35;;;13.57;;
69401;SDS011;56589;51.992;5.924;2022-11-14T10:02:19;27.58;;;14.35;;
69401;SDS011;56589;51.992;5.924;2022-11-14T10:08:13;26.52;;;13.45;;
69401;SDS011;56589;51.992;5.924;2022-11-14T10:11:00;23.88;;;13.70;;
69401;SDS011;56589;51.992;5.924;2022-11-14T10:13:47;23.67;;;13.75;;
69401;SDS011;56589;51.992;5.924;2022-11-14T10:16:36;22.10;;;13.63;;
69401;SDS011;56589;51.992;5.924;2022-11-14T10:19:17;24.65;;;13.90;;
69401;SDS011;56589;51.992;5.924;2022-11-14T10:22:00;24.55;;;13.15;;
69401;SDS011;56589;51.992;5.924;2022-11-14T10:24:50;27.67;;;15.15;;
69401;SDS011;56589;51.992;5.924;2022-11-14T10:27:40;21.65;;;12.93;;
69401;SDS011;56589;51.992;5.924;2022-11-14T10:30:20;21.05;;;12.88;;
69401;SDS011;56589;51.992;5.924;2022-11-14T10:35:44;22.35;;;12.52;;
69401;SDS011;56589;51.992;5.924;2022-11-14T10:38:22;23.10;;;13.68;;
69401;SDS011;56589;51.992;5.924;2022-11-14T10:40:57;20.60;;;12.95;;
69401;SDS011;56589;51.992;5.924;2022-11-14T10:43:29;21.15;;;12.13;;
69401;SDS011;56589;51.992;5.924;2022-11-14T10:46:02;19.60;;;11.45;;
69401;SDS011;56589;51.992;5.924;2022-11-14T10:48:39;18.98;;;11.90;;
69401;SDS011;56589;51.992;5.924;2022-11-14T10:51:11;19.30;;;11.55;;
69401;SDS011;56589;51.992;5.924;2022-11-14T10:53:48;22.27;;;13.40;;
69401;SDS011;56589;51.992;5.924;2022-11-14T10:56:19;20.05;;;12.60;;
69401;SDS011;56589;51.992;5.924;2022-11-14T10:58:46;21.00;;;11.93;;
69401;SDS011;56589;51.992;5.924;2022-11-14T11:06:51;19.15;;;11.68;;
69401;SDS011;56589;51.992;5.924;2022-11-14T11:09:20;19.35;;;11.90;;
69401;SDS011;56589;51.992;5.924;2022-11-14T11:11:51;18.88;;;11.10;;
69401;SDS011;56589;51.992;5.924;2022-11-14T11:14:22;22.23;;;13.60;;
69401;SDS011;56589;51.992;5.924;2022-11-14T11:19:46;21.47;;;12.33;;
69401;SDS011;56589;51.992;5.924;2022-11-14T11:22:23;20.30;;;12.70;;
69401;SDS011;56589;51.992;5.924;2022-11-14T11:24:53;18.25;;;11.95;;
69401;SDS011;56589;51.992;5.924;2022-11-14T11:27:21;22.02;;;13.82;;
69401;SDS011;56589;51.992;5.924;2022-11-14T11:30:05;21.08;;;12.63;;
69401;SDS011;56589;51.992;5.924;2022-11-14T11:32:42;22.63;;;12.88;;
69401;SDS011;56589;51.992;5.924;2022-11-14T11:35:11;22.85;;;13.48;;
69401;SDS011;56589;51.992;5.924;2022-11-14T11:37:41;25.20;;;16.02;;
69401;SDS011;56589;51.992;5.924;2022-11-14T11:40:14;24.42;;;15.60;;
69401;SDS011;56589;51.992;5.924;2022-11-14T11:42:46;26.40;;;16.03;;
69401;SDS011;56589;51.992;5.924;2022-11-14T11:45:21;25.35;;;16.85;;
69401;SDS011;56589;51.992;5.924;2022-11-14T11:47:50;25.30;;;16.17;;
69401;SDS011;56589;51.992;5.924;2022-11-14T11:50:24;27.58;;;16.10;;
69401;SDS011;56589;51.992;5.924;2022-11-14T11:52:55;25.23;;;16.48;;
69401;SDS011;56589;51.992;5.924;2022-11-14T11:55:32;23.70;;;14.77;;
69401;SDS011;56589;51.992;5.924;2022-11-14T11:58:06;26.77;;;17.00;;
69401;SDS011;56589;51.992;5.924;2022-11-14T12:00:44;30.00;;;17.10;;
69401;SDS011;56589;51.992;5.924;2022-11-14T12:03:11;31.20;;;17.90;;
69401;SDS011;56589;51.992;5.924;2022-11-14T12:05:44;31.02;;;19.42;;
69401;SDS011;56589;51.992;5.924;2022-11-14T12:08:25;31.08;;;19.30;;
69401;SDS011;56589;51.992;5.924;2022-11-14T12:11:03;34.55;;;19.38;;
69401;SDS011;56589;51.992;5.924;2022-11-14T12:13:43;28.17;;;18.45;;
69401;SDS011;56589;51.992;5.924;2022-11-14T12:16:50;31.02;;;19.05;;
69401;SDS011;56589;51.992;5.924;2022-11-14T12:22:59;26.83;;;17.40;;
69401;SDS011;56589;51.992;5.924;2022-11-14T12:26:12;29.08;;;17.58;;
69401;SDS011;56589;51.992;5.924;2022-11-14T12:29:11;31.58;;;18.27;;
69401;SDS011;56589;51.992;5.924;2022-11-14T12:32:06;29.42;;;18.40;;
69401;SDS011;56589;51.992;5.924;2022-11-14T12:34:40;27.75;;;17.17;;
69401;SDS011;56589;51.992;5.924;2022-11-14T12:37:14;25.42;;;16.10;;
69401;SDS011;56589;51.992;5.924;2022-11-14T12:39:56;28.65;;;16.90;;
69401;SDS011;56589;51.992;5.924;2022-11-14T12:42:26;27.92;;;16.95;;
69401;SDS011;56589;51.992;5.924;2022-11-14T12:44:52;30.55;;;16.33;;
69401;SDS011;56589;51.992;5.924;2022-11-14T12:47:18;26.45;;;15.80;;
69401;SDS011;56589;51.992;5.924;2022-11-14T12:49:57;25.02;;;15.07;;
69401;SDS011;56589;51.992;5.924;2022-11-14T12:53:01;26.13;;;15.93;;
69401;SDS011;56589;51.992;5.924;2022-11-14T12:58:48;26.25;;;15.05;;
69401;SDS011;56589;51.992;5.924;2022-11-14T13:01:43;27.02;;;14.60;;
69401;SDS011;56589;51.992;5.924;2022-11-14T13:04:24;23.38;;;14.88;;
69401;SDS011;56589;51.992;5.924;2022-11-14T13:07:12;22.10;;;13.73;;
69401;SDS011;56589;51.992;5.924;2022-11-14T13:09:53;22.33;;;13.85;;
69401;SDS011;56589;51.992;5.924;2022-11-14T13:12:39;21.38;;;13.32;;
69401;SDS011;56589;51.992;5.924;2022-11-14T13:15:18;22.45;;;13.05;;
69401;SDS011;56589;51.992;5.924;2022-11-14T13:18:08;19.40;;;12.60;;
69401;SDS011;56589;51.992;5.924;2022-11-14T13:20:40;18.40;;;12.68;;
69401;SDS011;56589;51.992;5.924;2022-11-14T13:23:15;19.48;;;11.50;;
69401;SDS011;56589;51.992;5.924;2022-11-14T13:26:34;20.85;;;12.77;;
69401;SDS011;56589;51.992;5.924;2022-11-14T13:35:36;20.95;;;12.23;;
69401;SDS011;56589;51.992;5.924;2022-11-14T13:38:18;18.73;;;12.02;;
69401;SDS011;56589;51.992;5.924;2022-11-14T13:41:37;21.17;;;12.63;;
69401;SDS011;56589;51.992;5.924;2022-11-14T13:51:02;19.52;;;12.10;;
69401;SDS011;56589;51.992;5.924;2022-11-14T13:53:35;19.58;;;12.40;;
69401;SDS011;56589;51.992;5.924;2022-11-14T13:56:07;21.92;;;12.38;;
69401;SDS011;56589;51.992;5.924;2022-11-14T13:58:58;19.60;;;11.70;;
69401;SDS011;56589;51.992;5.924;2022-11-14T14:05:24;18.25;;;11.38;;
69401;SDS011;56589;51.992;5.924;2022-11-14T14:11:05;22.88;;;12.30;;
69401;SDS011;56589;51.992;5.924;2022-11-14T14:13:55;20.88;;;11.57;;
69401;SDS011;56589;51.992;5.924;2022-11-14T14:16:34;19.40;;;12.13;;
69401;SDS011;56589;51.992;5.924;2022-11-14T14:19:16;19.90;;;12.20;;
69401;SDS011;56589;51.992;5.924;2022-11-14T14:21:56;19.58;;;12.75;;
69401;SDS011;56589;51.992;5.924;2022-11-14T14:24:39;18.38;;;12.18;;
69401;SDS011;56589;51.992;5.924;2022-11-14T14:27:19;19.33;;;12.02;;
69401;SDS011;56589;51.992;5.924;2022-11-14T14:30:00;22.52;;;12.48;;
69401;SDS011;56589;51.992;5.924;2022-11-14T14:32:32;16.73;;;11.88;;
69401;SDS011;56589;51.992;5.924;2022-11-14T14:35:00;19.55;;;11.77;;
69401;SDS011;56589;51.992;5.924;2022-11-14T14:37:50;18.73;;;11.57;;
69401;SDS011;56589;51.992;5.924;2022-11-14T14:42:49;21.98;;;12.73;;
69401;SDS011;56589;51.992;5.924;2022-11-14T14:45:16;20.63;;;12.07;;
69401;SDS011;56589;51.992;5.924;2022-11-14T14:47:47;21.08;;;12.25;;
69401;SDS011;56589;51.992;5.924;2022-11-14T14:50:19;24.13;;;12.43;;
69401;SDS011;56589;51.992;5.924;2022-11-14T14:52:53;19.30;;;11.30;;
69401;SDS011;56589;51.992;5.924;2022-11-14T14:55:22;20.77;;;12.18;;
69401;SDS011;56589;51.992;5.924;2022-11-14T14:57:51;23.77;;;12.13;;
69401;SDS011;56589;51.992;5.924;2022-11-14T15:00:18;21.60;;;13.20;;
69401;SDS011;56589;51.992;5.924;2022-11-14T15:02:47;23.80;;;12.90;;
69401;SDS011;56589;51.992;5.924;2022-11-14T15:05:23;18.75;;;11.80;;
69401;SDS011;56589;51.992;5.924;2022-11-14T15:07:51;21.40;;;12.52;;
69401;SDS011;56589;51.992;5.924;2022-11-14T15:10:23;19.45;;;13.00;;
69401;SDS011;56589;51.992;5.924;2022-11-14T15:12:52;19.52;;;11.80;;
69401;SDS011;56589;51.992;5.924;2022-11-14T15:15:19;20.42;;;12.30;;
69401;SDS011;56589;51.992;5.924;2022-11-14T15:17:48;17.70;;;11.43;;
69401;SDS011;56589;51.992;5.924;2022-11-14T15:20:19;16.38;;;11.30;;
69401;SDS011;56589;51.992;5.924;2022-11-14T15:23:03;16.23;;;10.90;;
69401;SDS011;56589;51.992;5.924;2022-11-14T15:25:42;17.75;;;10.68;;
69401;SDS011;56589;51.992;5.924;2022-11-14T15:28:18;20.10;;;11.32;;
69401;SDS011;56589;51.992;5.924;2022-11-14T15:30:54;15.85;;;9.77;;